Aérodrome :
LOGIN :

S'inscrire | Disclaimer

   EN    FR    IT 

 










Légende :    VFR   VFR Marginal   IFR   IFR Intensif   IFR Très Intensif
Visi : 
Plafond : 
>= 8 km
>= 3000ft
5 à 8 km
1000 à 3000 ft
1500m à 5 km
500 à 1000 ft
800 à 1500m
200 à 500 ft
< 800m
< 200 ft
Symboles :   Orages  Brouillard  Fortes neiges  Fortes précipitations  Vent > 20 kt
SIGMETs :   Divers  Orages  Givrage  Turbulence  Onde Orograph.  Cendres Volcan.






- Altitude de l'aérodrome : 142 ft
- Code IATA : FLR


LIRQ - Firenze Amerigo Vespucci

DERNIER METAR :
  • 170250Z VRB02KT 9999 OVC010 08/06 Q1028

METARs EXPIRÉS :
  • 170220Z 13002KT 9999 OVC010 08/06 Q1029
  • 170150Z 13003KT 9999 OVC010 08/06 Q1029
  • 170120Z VRB02KT 9999 BKN010 07/06 Q1029
  • 170050Z 12005KT 9999 SCT010 06/05 Q1029
  • 170020Z 11006KT CAVOK 06/05 Q1029

TAF TAF LIRQ
Valide du 17 à 00h jusqu'au 18 à 00h UTC


162300Z 1700/1724 VRB05KT 4000 BR SCT020
TEMPO 1702/1708 1200 BCFG BKN008
BECMG 1708/1710 8000
BECMG 1710/1712 22010KT
BECMG 1717/1719 VRB05KT



MET'MAP, la Météo Aéronautique d'un coup d'oeil ! - Copyright ORBIFLY Décembre 2007 - Disclaimer

ORBIFLY MET'MAP TEAM :

Programmation & Développement : Alexandra Zaïnal
Sur une idée originale de : Baudouin d'Aumeries
Assistance à la programmation : Marc-Olivier Méhu
Soutien technique & logistique : Manuel Goepfert

Contact : metmap@orbifly.com




SOURCES & CREDITS :

   NOAA